Time;durP1;ratioP1;P1;durP2;ratioP2;P2;SDS_P1;SDS_P2;PMS_P1;PMS_P2;Temp;Humidity;BMP_temperature;BMP_pressure;BME280_temperature;BME280_humidity;BME280_pressure;Samples;Min_cycle;Max_cycle;Signal;HPM_P1;HPM_P2
2023/01/09 00:01:53;;;;;;;;;;;;;;;6.14;82.31;100164.36;107274;1256;71798;-85
2023/01/09 00:04:24;;;;;;;;;;;;;;;6.13;82.36;100156.67;107301;1257;66909;-83
2023/01/09 00:06:54;;;;;;;;;;;;;;;6.16;82.40;100151.54;107344;1256;72662;-84
2023/01/09 00:09:34;;;;;;;;;;;;;;;6.17;82.44;100148.81;107393;1256;59669;-83
2023/01/09 00:12:02;;;;;;;;;;;;;;;6.19;82.41;100154.79;107460;1256;59865;-84
2023/01/09 00:14:29;;;;;;;;;;;;;;;6.21;82.38;100154.68;107564;1259;70648;-84
2023/01/09 00:16:57;;;;;;;;;;;;;;;6.22;82.26;100153.83;107685;1256;65730;-84
2023/01/09 00:19:26;;;;;;;;;;;;;;;6.22;82.21;100145.64;107491;1257;70241;-84
2023/01/09 00:21:53;;;;;;;;;;;;;;;6.20;82.22;100145.22;107343;1258;61133;-84
2023/01/09 00:24:26;;;;;;;;;;;;;;;6.18;82.22;100143.09;107420;1255;59459;-84
2023/01/09 00:26:54;;;;;;;;;;;;;;;6.23;82.27;100144.10;107291;1257;72986;-84
2023/01/09 00:29:22;;;;;;;;;;;;;;;6.25;82.20;100136.31;107360;1256;67164;-84
2023/01/09 00:31:49;;;;;;;;;;;;;;;6.26;82.22;100126.59;107330;1256;72453;-84
2023/01/09 00:34:34;;;;;;;;;;;;;;;6.26;82.20;100125.04;107299;1257;60575;-84
2023/01/09 00:40:04;;;;;;;;;;;;;;;6.28;82.05;100120.21;107312;1256;74802;-84
2023/01/09 00:42:31;;;;;;;;;;;;;;;6.26;82.02;100111.97;107408;1255;66607;-84
2023/01/09 00:44:59;;;;;;;;;;;;;;;6.25;81.98;100113.34;107552;1255;72800;-84
2023/01/09 00:47:28;;;;;;;;;;;;;;;6.26;82.06;100114.23;107477;1259;60594;-84
2023/01/09 00:49:57;;;;;;;;;;;;;;;6.26;82.04;100107.80;107429;1256;60462;-84
2023/01/09 00:52:24;;;;;;;;;;;;;;;6.28;82.15;100100.17;107649;1257;73692;-84
2023/01/09 00:54:58;;;;;;;;;;;;;;;6.30;82.11;100098.16;107573;1255;66754;-84
2023/01/09 00:57:25;;;;;;;;;;;;;;;6.31;82.04;100097.48;107661;1256;71735;-84
2023/01/09 01:00:07;;;;;;;;;;;;;;;6.27;81.83;100092.30;107514;1256;59531;-84
2023/01/09 01:02:41;;;;;;;;;;;;;;;6.24;81.85;100097.98;107420;1255;60384;-85
2023/01/09 01:07:54;;;;;;;;;;;;;;;6.25;81.91;100102.17;107537;1256;66738;-84
2023/01/09 01:10:22;;;;;;;;;;;;;;;6.21;81.80;100101.70;107547;1256;71490;-84
2023/01/09 01:12:49;;;;;;;;;;;;;;;6.18;81.87;100100.59;107511;1256;60450;-84
2023/01/09 01:15:17;;;;;;;;;;;;;;;6.18;81.88;100103.34;107464;1256;59334;-84
2023/01/09 01:17:44;;;;;;;;;;;;;;;6.17;81.92;100104.73;107298;1256;72502;-85
2023/01/09 01:20:15;;;;;;;;;;;;;;;6.17;81.94;100110.46;107493;1256;65619;-92
2023/01/09 01:22:43;;;;;;;;;;;;;;;6.15;81.90;100112.84;107749;1259;72686;-92
2023/01/09 01:25:12;;;;;;;;;;;;;;;6.13;81.93;100112.77;107621;1257;59564;-92
2023/01/09 01:27:47;;;;;;;;;;;;;;;6.13;82.04;100113.46;107485;1257;60339;-92
2023/01/09 01:30:20;;;;;;;;;;;;;;;6.13;81.93;100119.73;107516;1256;73898;-92
2023/01/09 01:32:50;;;;;;;;;;;;;;;6.11;81.92;100110.80;107375;1256;64454;-91
2023/01/09 01:35:17;;;;;;;;;;;;;;;6.09;81.98;100098.36;107368;1257;72801;-91
2023/01/09 01:37:52;;;;;;;;;;;;;;;6.07;81.95;100098.64;107444;1256;60569;-92
2023/01/09 01:40:26;;;;;;;;;;;;;;;6.05;81.97;100103.46;107617;1256;59464;-91
2023/01/09 01:42:59;;;;;;;;;;;;;;;6.04;82.06;100102.73;107441;1255;72585;-92
2023/01/09 01:45:32;;;;;;;;;;;;;;;6.01;82.01;100097.93;107401;1256;67429;-91
2023/01/09 01:48:00;;;;;;;;;;;;;;;6.02;81.99;100101.27;107387;1256;73164;-91
2023/01/09 01:50:29;;;;;;;;;;;;;;;6.01;81.99;100102.29;107352;1259;60532;-91
2023/01/09 01:53:21;;;;;;;;;;;;;;;6.01;82.07;100103.86;107583;1255;60406;-84
2023/01/09 01:56:09;;;;;;;;;;;;;;;6.02;82.10;100095.17;107725;1256;73822;-91
2023/01/09 01:58:38;;;;;;;;;;;;;;;6.01;82.06;100087.67;107842;1256;66911;-91
2023/01/09 02:01:05;;;;;;;;;;;;;;;6.00;81.96;100088.16;107734;1257;73145;-91
2023/01/09 02:03:32;;;;;;;;;;;;;;;6.00;82.02;100085.17;107571;1255;60428;-90
2023/01/09 02:05:59;;;;;;;;;;;;;;;6.02;82.03;100089.43;107673;1260;59532;-82
2023/01/09 02:08:29;;;;;;;;;;;;;;;6.03;82.02;100083.71;107389;1259;73871;-82
2023/01/09 02:10:58;;;;;;;;;;;;;;;6.06;82.04;100078.21;107375;1256;67065;-82
2023/01/09 02:13:25;;;;;;;;;;;;;;;6.07;82.03;100074.44;107766;1256;72721;-82
2023/01/09 02:15:55;;;;;;;;;;;;;;;6.06;81.94;100070.73;107750;1255;60160;-90
2023/01/09 02:18:50;;;;;;;;;;;;;;;6.08;81.95;100072.00;107518;1256;58824;-90
2023/01/09 02:21:35;;;;;;;;;;;;;;;6.07;81.90;100074.45;107387;1255;72521;-91
2023/01/09 02:24:29;;;;;;;;;;;;;;;6.10;81.96;100074.00;107489;1256;65902;-89
2023/01/09 02:27:14;;;;;;;;;;;;;;;6.09;81.85;100081.11;107469;1256;71340;-90
2023/01/09 02:29:42;;;;;;;;;;;;;;;6.08;81.82;100081.59;107378;1260;60380;-89
2023/01/09 02:32:11;;;;;;;;;;;;;;;6.07;81.90;100071.83;107557;1259;60683;-91
2023/01/09 02:34:58;;;;;;;;;;;;;;;6.09;81.88;100072.92;107614;1256;74301;-91
2023/01/09 02:37:41;;;;;;;;;;;;;;;6.09;81.80;100074.49;107566;1256;65735;-90
2023/01/09 02:40:11;;;;;;;;;;;;;;;6.08;81.75;100071.16;107382;1256;71293;-91
2023/01/09 02:42:47;;;;;;;;;;;;;;;6.06;81.80;100069.34;107334;1256;60618;-92
2023/01/09 02:45:15;;;;;;;;;;;;;;;6.05;81.80;100071.59;107597;1256;59913;-91
2023/01/09 02:47:43;;;;;;;;;;;;;;;6.05;81.74;100077.00;107215;1259;74072;-92
2023/01/09 02:50:29;;;;;;;;;;;;;;;6.06;81.82;100074.56;107238;1257;65782;-92
2023/01/09 02:53:11;;;;;;;;;;;;;;;6.08;81.81;100073.95;107389;1256;71234;-91
2023/01/09 02:55:46;;;;;;;;;;;;;;;6.08;81.85;100069.92;107585;1259;60454;-91
2023/01/09 02:58:22;;;;;;;;;;;;;;;6.09;81.82;100071.19;107837;1257;61926;-93
2023/01/09 03:01:16;;;;;;;;;;;;;;;6.07;81.72;100062.24;107866;1256;74036;-93
2023/01/09 03:04:03;;;;;;;;;;;;;;;6.08;81.79;100064.54;107667;1256;66728;-85
2023/01/09 03:06:48;;;;;;;;;;;;;;;6.07;81.69;100065.71;107434;1257;72707;-83
2023/01/09 03:09:19;;;;;;;;;;;;;;;6.06;81.74;100065.52;107598;1256;58457;-83
2023/01/09 03:12:01;;;;;;;;;;;;;;;6.02;81.59;100057.39;107825;1256;60491;-91
2023/01/09 03:14:29;;;;;;;;;;;;;;;5.97;81.59;100055.63;107279;1262;73892;-91
2023/01/09 03:17:24;;;;;;;;;;;;;;;5.92;81.61;100059.82;107168;1259;67032;-91
2023/01/09 03:20:08;;;;;;;;;;;;;;;5.89;81.75;100062.30;107140;1259;72553;-91
2023/01/09 03:25:44;;;;;;;;;;;;;;;5.85;81.85;100069.51;107255;1255;60616;-90
2023/01/09 03:28:24;;;;;;;;;;;;;;;5.83;81.85;100065.63;107039;1256;74497;-90
2023/01/09 03:30:51;;;;;;;;;;;;;;;5.80;81.81;100059.09;107071;1262;67374;-91
2023/01/09 03:33:19;;;;;;;;;;;;;;;5.78;81.81;100057.10;107270;1257;72437;-82
2023/01/09 03:35:48;;;;;;;;;;;;;;;5.76;81.86;100056.15;107136;1256;60505;-82
2023/01/09 03:38:18;;;;;;;;;;;;;;;5.75;82.00;100057.33;107380;1257;60370;-81
2023/01/09 03:40:45;;;;;;;;;;;;;;;5.74;82.00;100053.30;107706;1256;73671;-83
2023/01/09 03:43:12;;;;;;;;;;;;;;;5.75;82.06;100056.48;108928;1257;67062;-82
2023/01/09 03:45:39;;;;;;;;;;;;;;;5.74;82.00;100050.70;107842;1258;71609;-83
2023/01/09 03:48:06;;;;;;;;;;;;;;;5.73;82.10;100051.71;107530;1256;60485;-83
2023/01/09 03:50:33;;;;;;;;;;;;;;;5.76;82.16;100048.16;107570;1257;60451;-91
2023/01/09 03:53:02;;;;;;;;;;;;;;;5.79;82.13;100047.04;107364;1257;74983;-91
2023/01/09 03:55:30;;;;;;;;;;;;;;;5.81;82.15;100045.00;107531;1255;67983;-90
2023/01/09 03:57:57;;;;;;;;;;;;;;;5.82;82.11;100046.95;107272;1257;73539;-91
2023/01/09 04:00:30;;;;;;;;;;;;;;;5.83;82.11;100048.40;107314;1257;60202;-90
2023/01/09 04:02:58;;;;;;;;;;;;;;;5.84;82.04;100050.14;107434;1256;60155;-83
2023/01/09 04:05:27;;;;;;;;;;;;;;;5.82;81.99;100047.64;107797;1256;73596;-83
2023/01/09 04:07:54;;;;;;;;;;;;;;;5.82;82.11;100041.56;107834;1256;65770;-82
2023/01/09 04:10:21;;;;;;;;;;;;;;;5.79;81.98;100039.38;107434;1257;72818;-82
2023/01/09 04:12:49;;;;;;;;;;;;;;;5.79;82.04;100041.63;107395;1256;60353;-83
2023/01/09 04:15:16;;;;;;;;;;;;;;;5.81;82.13;100038.57;107616;1256;60179;-83
2023/01/09 04:17:43;;;;;;;;;;;;;;;5.83;82.15;100035.33;107521;1256;73563;-82
2023/01/09 04:20:10;;;;;;;;;;;;;;;5.85;82.20;100030.33;107454;1256;66771;-82
2023/01/09 04:22:52;;;;;;;;;;;;;;;5.85;82.16;100031.55;107999;1256;72392;-89
2023/01/09 04:25:28;;;;;;;;;;;;;;;5.85;82.14;100027.88;107432;1255;59604;-90
2023/01/09 04:27:59;;;;;;;;;;;;;;;5.83;82.07;100030.08;107565;1257;60687;-90
2023/01/09 04:30:44;;;;;;;;;;;;;;;5.82;82.11;100037.72;107410;1255;72558;-90
2023/01/09 04:33:11;;;;;;;;;;;;;;;5.84;82.12;100043.17;107313;1256;65630;-89
2023/01/09 04:35:47;;;;;;;;;;;;;;;5.84;82.16;100045.98;107185;1260;71148;-89
2023/01/09 04:38:17;;;;;;;;;;;;;;;5.85;82.11;100045.29;107287;1256;59448;-89
2023/01/09 04:40:51;;;;;;;;;;;;;;;5.84;82.23;100048.42;107196;1260;59276;-90
2023/01/09 04:43:22;;;;;;;;;;;;;;;5.84;82.15;100044.23;107285;1260;72580;-89
2023/01/09 04:46:05;;;;;;;;;;;;;;;5.85;82.19;100042.70;107342;1257;67764;-91
2023/01/09 04:48:51;;;;;;;;;;;;;;;5.89;82.20;100042.81;107376;1257;70554;-83
2023/01/09 04:51:38;;;;;;;;;;;;;;;5.89;82.10;100042.29;107477;1255;61027;-83
2023/01/09 04:54:08;;;;;;;;;;;;;;;5.89;82.13;100042.30;107606;1255;60070;-84
2023/01/09 04:56:37;;;;;;;;;;;;;;;5.90;82.13;100048.43;107454;1257;73978;-83
2023/01/09 04:59:04;;;;;;;;;;;;;;;5.91;82.14;100047.42;107434;1255;65914;-83
2023/01/09 05:01:36;;;;;;;;;;;;;;;5.92;82.11;100055.63;107366;1257;72732;-84
2023/01/09 05:04:03;;;;;;;;;;;;;;;5.94;82.14;100050.11;107283;1257;60427;-83
2023/01/09 05:06:31;;;;;;;;;;;;;;;5.94;82.02;100048.89;107469;1255;60695;-84
2023/01/09 05:08:59;;;;;;;;;;;;;;;5.94;82.04;100051.85;107682;1256;73910;-83
2023/01/09 05:11:39;;;;;;;;;;;;;;;5.95;82.07;100050.51;107536;1256;67045;-84
2023/01/09 05:14:05;;;;;;;;;;;;;;;5.95;82.02;100046.73;107524;1256;72706;-82
2023/01/09 05:16:33;;;;;;;;;;;;;;;5.96;82.07;100040.48;107413;1256;60412;-83
2023/01/09 05:19:04;;;;;;;;;;;;;;;5.93;81.99;100034.09;107505;1257;59160;-82
2023/01/09 05:21:31;;;;;;;;;;;;;;;5.92;82.02;100031.95;107484;1257;73910;-82
2023/01/09 05:23:59;;;;;;;;;;;;;;;5.90;81.94;100027.02;107602;1255;65753;-83
2023/01/09 05:26:26;;;;;;;;;;;;;;;5.86;81.95;100017.13;107565;1257;73236;-82
2023/01/09 05:28:55;;;;;;;;;;;;;;;5.81;81.86;100014.52;107594;1256;60380;-82
2023/01/09 05:31:22;;;;;;;;;;;;;;;5.77;82.04;100011.80;107331;1256;60291;-81
2023/01/09 05:33:52;;;;;;;;;;;;;;;5.76;82.06;100007.59;107409;1255;72523;-83
2023/01/09 05:36:19;;;;;;;;;;;;;;;5.73;81.98;100010.09;107361;1257;65632;-83
2023/01/09 05:38:47;;;;;;;;;;;;;;;5.69;82.08;100007.02;107368;1256;72566;-84
2023/01/09 05:41:18;;;;;;;;;;;;;;;5.64;82.01;100007.71;107415;1256;60332;-83
2023/01/09 05:43:45;;;;;;;;;;;;;;;5.58;82.05;100007.19;107185;1256;60466;-92
2023/01/09 05:46:36;;;;;;;;;;;;;;;5.58;82.18;100006.64;107438;1256;72592;-93
2023/01/09 05:59:17;;;;;;;;;;;;;;;5.52;82.43;99999.33;107354;1259;61650;-85
2023/01/09 06:01:46;;;;;;;;;;;;;;;5.51;82.41;100000.15;107249;1257;74369;-85
2023/01/09 06:04:34;;;;;;;;;;;;;;;5.53;82.43;100000.90;107240;1256;65742;-84
2023/01/09 06:07:01;;;;;;;;;;;;;;;5.54;82.46;99997.80;107246;1256;73204;-83
2023/01/09 06:09:36;;;;;;;;;;;;;;;5.56;82.50;100000.48;107203;1258;60464;-84
2023/01/09 06:12:13;;;;;;;;;;;;;;;5.58;82.56;99994.96;107342;1256;60570;-82
2023/01/09 06:14:56;;;;;;;;;;;;;;;5.60;82.57;99989.84;107355;1257;73110;-84
2023/01/09 06:17:23;;;;;;;;;;;;;;;5.62;82.57;99992.69;107410;1259;67088;-82
2023/01/09 06:19:50;;;;;;;;;;;;;;;5.61;82.43;99993.16;107524;1256;72688;-83
2023/01/09 06:22:17;;;;;;;;;;;;;;;5.62;82.42;99986.94;107485;1256;60475;-83
2023/01/09 06:24:44;;;;;;;;;;;;;;;5.61;82.40;99983.08;107353;1257;59146;-82
2023/01/09 06:27:18;;;;;;;;;;;;;;;5.60;82.42;99982.17;107343;1255;73571;-92
2023/01/09 06:30:07;;;;;;;;;;;;;;;5.61;82.42;99982.05;107112;1257;66322;-90
2023/01/09 06:32:38;;;;;;;;;;;;;;;5.62;82.52;99974.42;107511;1255;71286;-91
2023/01/09 06:35:24;;;;;;;;;;;;;;;5.68;82.59;99969.01;107202;1256;60457;-90
2023/01/09 06:37:53;;;;;;;;;;;;;;;5.70;82.50;99972.57;107287;1255;60255;-90
2023/01/09 06:40:21;;;;;;;;;;;;;;;5.69;82.43;99968.37;107329;1257;74751;-90
2023/01/09 06:42:49;;;;;;;;;;;;;;;5.73;82.51;99973.70;107338;1256;67070;-82
2023/01/09 06:45:30;;;;;;;;;;;;;;;5.70;82.27;99968.06;107082;1256;71892;-82
2023/01/09 06:47:57;;;;;;;;;;;;;;;5.69;82.28;99970.09;107231;1259;60693;-82
2023/01/09 06:50:29;;;;;;;;;;;;;;;5.67;82.33;99968.45;107199;1257;58534;-82
2023/01/09 06:52:56;;;;;;;;;;;;;;;5.68;82.36;99974.91;107155;1257;73771;-82
2023/01/09 06:55:29;;;;;;;;;;;;;;;5.66;82.35;99974.35;107327;1256;65630;-82
2023/01/09 06:57:56;;;;;;;;;;;;;;;5.70;82.59;99971.52;107288;1260;72372;-83
2023/01/09 07:00:24;;;;;;;;;;;;;;;5.77;82.59;99974.89;107154;1258;60477;-89
2023/01/09 07:02:53;;;;;;;;;;;;;;;5.79;82.44;99979.81;107411;1257;60097;-90
2023/01/09 07:05:20;;;;;;;;;;;;;;;5.80;82.40;99978.43;108511;1256;73051;-83
2023/01/09 07:07:53;;;;;;;;;;;;;;;5.79;82.34;99976.85;107764;1262;65940;-83
2023/01/09 07:10:33;;;;;;;;;;;;;;;5.78;82.30;99974.40;107354;1260;71520;-90
2023/01/09 07:13:00;;;;;;;;;;;;;;;5.78;82.31;99976.66;107280;1256;60374;-90
2023/01/09 07:15:27;;;;;;;;;;;;;;;5.80;82.30;99976.20;107540;1257;60325;-84
2023/01/09 07:17:55;;;;;;;;;;;;;;;5.79;82.22;99969.89;107189;1256;74210;-84
2023/01/09 07:20:22;;;;;;;;;;;;;;;5.78;82.28;99967.44;107324;1256;65864;-84
2023/01/09 07:22:57;;;;;;;;;;;;;;;5.76;82.18;99964.41;107326;1257;71339;-85
2023/01/09 07:25:24;;;;;;;;;;;;;;;5.76;82.25;99964.41;107480;1256;60472;-84
2023/01/09 07:28:10;;;;;;;;;;;;;;;5.76;82.27;99967.22;107386;1257;60447;-90
2023/01/09 07:30:37;;;;;;;;;;;;;;;5.76;82.27;99963.71;107625;1256;72579;-84
2023/01/09 07:33:04;;;;;;;;;;;;;;;5.76;82.29;99960.75;108034;1257;65872;-84
2023/01/09 07:35:31;;;;;;;;;;;;;;;5.76;82.30;99956.23;107450;1256;73709;-84
2023/01/09 07:37:58;;;;;;;;;;;;;;;5.76;82.30;99954.14;107541;1259;60369;-84
2023/01/09 07:40:38;;;;;;;;;;;;;;;5.74;82.26;99951.98;107618;1262;60383;-84
2023/01/09 07:43:05;;;;;;;;;;;;;;;5.74;82.25;99954.59;107952;1257;73751;-84
2023/01/09 07:45:32;;;;;;;;;;;;;;;5.73;82.21;99954.56;108141;1256;67658;-84
2023/01/09 07:48:08;;;;;;;;;;;;;;;5.73;82.22;99954.91;107745;1256;72781;-84
2023/01/09 07:50:35;;;;;;;;;;;;;;;5.72;82.23;99954.17;107496;1256;60351;-84
2023/01/09 07:53:03;;;;;;;;;;;;;;;5.71;82.20;99950.64;107285;1256;60318;-84
2023/01/09 07:55:30;;;;;;;;;;;;;;;5.68;82.28;99946.38;107486;1257;72381;-83
2023/01/09 07:57:57;;;;;;;;;;;;;;;5.67;82.24;99943.57;107900;1257;67438;-83
2023/01/09 08:00:33;;;;;;;;;;;;;;;5.67;82.31;99942.02;107684;1257;72659;-84
2023/01/09 08:03:07;;;;;;;;;;;;;;;5.69;82.36;99947.45;107332;1260;60573;-84
2023/01/09 08:05:36;;;;;;;;;;;;;;;5.67;82.23;99944.80;107600;1257;60166;-83
2023/01/09 08:08:13;;;;;;;;;;;;;;;5.63;82.18;99944.51;107683;1257;73628;-84
2023/01/09 08:10:42;;;;;;;;;;;;;;;5.62;82.27;99946.04;107590;1257;66852;-83
2023/01/09 08:13:09;;;;;;;;;;;;;;;5.63;82.31;99944.16;107472;1257;72827;-83
2023/01/09 08:15:39;;;;;;;;;;;;;;;5.62;82.21;99943.77;107519;1257;59569;-83
2023/01/09 08:18:08;;;;;;;;;;;;;;;5.59;82.24;99940.56;107603;1257;60390;-84
2023/01/09 08:20:49;;;;;;;;;;;;;;;5.61;82.38;99936.60;107562;1257;72886;-82
2023/01/09 08:23:25;;;;;;;;;;;;;;;5.65;82.47;99929.59;107691;1259;66750;-83
2023/01/09 08:26:06;;;;;;;;;;;;;;;5.66;82.36;99923.71;108286;1255;70222;-83
2023/01/09 08:28:33;;;;;;;;;;;;;;;5.69;82.48;99931.46;107509;1257;202816;-84
2023/01/09 08:31:09;;;;;;;;;;;;;;;5.74;82.43;99932.13;107518;1257;59950;-83
2023/01/09 08:33:36;;;;;;;;;;;;;;;5.77;82.29;99927.36;107564;1256;72453;-84
2023/01/09 08:36:09;;;;;;;;;;;;;;;5.78;82.26;99929.84;107334;1256;65782;-84
2023/01/09 08:38:39;;;;;;;;;;;;;;;5.77;82.22;99931.86;107213;1257;72377;-85
2023/01/09 08:47:06;;;;;;;;;;;;;;;5.84;82.23;99927.22;107299;1259;73618;-83
2023/01/09 08:49:39;;;;;;;;;;;;;;;5.84;82.11;99926.35;107322;1256;66090;-83
2023/01/09 08:52:07;;;;;;;;;;;;;;;5.79;81.97;99922.03;107323;1255;71836;-83
2023/01/09 08:54:37;;;;;;;;;;;;;;;5.78;82.06;99923.20;107291;1257;59615;-84
2023/01/09 08:57:05;;;;;;;;;;;;;;;5.77;82.05;99929.98;107717;1259;60632;-83
2023/01/09 08:59:32;;;;;;;;;;;;;;;5.75;82.04;99931.82;107708;1257;73640;-83
2023/01/09 09:02:01;;;;;;;;;;;;;;;5.73;81.98;99929.33;107534;1257;65621;-83
2023/01/09 09:04:29;;;;;;;;;;;;;;;5.70;81.97;99931.51;107628;1256;73220;-83
2023/01/09 09:07:02;;;;;;;;;;;;;;;5.71;82.03;99931.35;107403;1259;60531;-84
2023/01/09 09:09:32;;;;;;;;;;;;;;;5.71;82.03;99932.55;107463;1260;60380;-83
2023/01/09 09:12:02;;;;;;;;;;;;;;;5.73;82.08;99931.73;107524;1255;72398;-82
2023/01/09 09:17:15;;;;;;;;;;;;;;;5.67;82.04;99922.87;107679;1258;71383;-83
2023/01/09 09:19:42;;;;;;;;;;;;;;;5.63;81.97;99924.31;107727;1260;60434;-83
2023/01/09 09:22:24;;;;;;;;;;;;;;;5.61;82.01;99928.95;107355;1256;60463;-90
2023/01/09 09:24:51;;;;;;;;;;;;;;;5.62;82.09;99926.89;107117;1261;73850;-90
2023/01/09 09:27:18;;;;;;;;;;;;;;;5.60;82.03;99924.42;107436;1256;68640;-90
2023/01/09 09:29:45;;;;;;;;;;;;;;;5.58;82.02;99924.66;107493;1259;72457;-89
2023/01/09 09:32:15;;;;;;;;;;;;;;;5.57;82.04;99924.30;107523;1257;60485;-90
2023/01/09 09:34:44;;;;;;;;;;;;;;;5.55;82.06;99923.89;107485;1260;60469;-89
2023/01/09 09:37:20;;;;;;;;;;;;;;;5.57;82.15;99921.14;107481;1257;72245;-89
2023/01/09 09:39:49;;;;;;;;;;;;;;;5.55;81.99;99923.35;107411;1262;66903;-89
2023/01/09 09:45:15;;;;;;;;;;;;;;;5.52;82.07;99915.77;107641;1259;60376;-83
2023/01/09 09:47:56;;;;;;;;;;;;;;;5.55;82.21;99913.98;107726;1254;59913;-83
2023/01/09 09:50:55;;;;;;;;;;;;;;;5.58;82.17;99918.94;107905;1258;73988;-82
2023/01/09 09:53:34;;;;;;;;;;;;;;;5.63;82.24;99918.05;107307;1260;67634;-86
2023/01/09 09:56:03;;;;;;;;;;;;;;;5.67;82.21;99918.50;107356;1260;72581;-83
2023/01/09 09:58:44;;;;;;;;;;;;;;;5.71;82.26;99912.52;107577;1259;59237;-82
2023/01/09 10:01:17;;;;;;;;;;;;;;;5.71;82.03;99914.13;108390;1256;59836;-81
2023/01/09 10:03:52;;;;;;;;;;;;;;;5.65;81.87;99902.08;107408;1260;73908;-81
2023/01/09 10:06:40;;;;;;;;;;;;;;;5.63;81.86;99908.45;107376;1260;66332;-88
2023/01/09 10:09:36;;;;;;;;;;;;;;;5.61;81.89;99908.23;107119;1260;73067;-88
2023/01/09 10:12:15;;;;;;;;;;;;;;;5.63;82.03;99903.75;107156;1260;59637;-87
2023/01/09 10:15:07;;;;;;;;;;;;;;;5.66;82.00;99906.46;107324;1260;60067;-87
2023/01/09 10:17:44;;;;;;;;;;;;;;;5.68;82.09;99906.20;107469;1257;74076;-88
2023/01/09 10:20:24;;;;;;;;;;;;;;;5.71;82.11;99907.66;107179;1258;65460;-89
2023/01/09 10:23:19;;;;;;;;;;;;;;;5.76;82.06;99905.56;107339;1258;72950;-88
2023/01/09 10:26:05;;;;;;;;;;;;;;;5.80;82.02;99906.54;107377;1260;60970;-88
2023/01/09 10:28:36;;;;;;;;;;;;;;;5.80;81.98;99896.99;107146;1257;60572;-89
2023/01/09 10:31:06;;;;;;;;;;;;;;;5.81;81.89;99894.23;107361;1260;72738;-87
2023/01/09 10:33:49;;;;;;;;;;;;;;;5.82;81.84;99885.90;107375;1257;65778;-86
2023/01/09 10:36:35;;;;;;;;;;;;;;;5.83;81.86;99884.88;107400;1257;71737;-88
2023/01/09 10:39:15;;;;;;;;;;;;;;;5.84;81.80;99883.71;107429;1256;60527;-88
2023/01/09 10:41:47;;;;;;;;;;;;;;;5.85;81.79;99885.45;107818;1257;60457;-88
2023/01/09 10:44:26;;;;;;;;;;;;;;;5.86;81.74;99883.23;107437;1255;73958;-87
2023/01/09 10:46:54;;;;;;;;;;;;;;;5.88;81.75;99879.97;107381;1260;67594;-87
2023/01/09 10:49:21;;;;;;;;;;;;;;;5.86;81.63;99883.40;107537;1260;71452;-88
2023/01/09 10:51:49;;;;;;;;;;;;;;;5.84;81.69;99880.92;107729;1257;60441;-88
2023/01/09 10:54:18;;;;;;;;;;;;;;;5.84;81.70;99886.15;107644;1256;60668;-88
2023/01/09 10:56:53;;;;;;;;;;;;;;;5.84;81.60;99884.23;107411;1259;72857;-88
2023/01/09 10:59:29;;;;;;;;;;;;;;;5.82;81.52;99886.42;107418;1257;65990;-89
2023/01/09 11:02:00;;;;;;;;;;;;;;;5.78;81.47;99883.89;107576;1255;71648;-88
2023/01/09 11:04:35;;;;;;;;;;;;;;;5.78;81.62;99878.66;107724;1259;60591;-87
2023/01/09 11:07:04;;;;;;;;;;;;;;;5.79;81.59;99876.94;107459;1258;60450;-88
2023/01/09 11:09:51;;;;;;;;;;;;;;;5.78;81.64;99875.35;107277;1258;73963;-87
2023/01/09 11:12:25;;;;;;;;;;;;;;;5.78;81.58;99868.19;107682;1260;66912;-84
2023/01/09 11:14:53;;;;;;;;;;;;;;;5.77;81.57;99867.48;107388;1257;72584;-83
2023/01/09 11:17:32;;;;;;;;;;;;;;;5.77;81.59;99859.80;107346;1258;60547;-83
2023/01/09 11:20:00;;;;;;;;;;;;;;;5.84;81.71;99863.32;107451;1260;60365;-83
2023/01/09 11:22:42;;;;;;;;;;;;;;;5.89;81.75;99851.98;107556;1257;73263;-83
2023/01/09 11:25:16;;;;;;;;;;;;;;;5.93;81.69;99856.63;107478;1258;65837;-84
2023/01/09 11:28:01;;;;;;;;;;;;;;;5.95;81.66;99852.34;107263;1258;73141;-84
2023/01/09 11:30:29;;;;;;;;;;;;;;;6.00;81.60;99855.30;107349;1258;60325;-83
2023/01/09 11:32:59;;;;;;;;;;;;;;;5.99;81.56;99851.80;107476;1260;59847;-85
2023/01/09 11:35:30;;;;;;;;;;;;;;;6.02;81.59;99855.38;107763;1257;72441;-84
2023/01/09 11:38:16;;;;;;;;;;;;;;;6.06;81.53;99851.27;107727;1257;65764;-84
2023/01/09 11:40:48;;;;;;;;;;;;;;;6.09;81.58;99850.52;107595;1257;73212;-84
2023/01/09 11:43:17;;;;;;;;;;;;;;;6.12;81.39;99850.40;107301;1257;58451;-84
2023/01/09 11:45:50;;;;;;;;;;;;;;;6.11;81.38;99846.02;107316;1262;60390;-82
2023/01/09 11:48:27;;;;;;;;;;;;;;;6.07;81.35;99841.38;107538;1258;73162;-84
2023/01/09 11:50:56;;;;;;;;;;;;;;;6.11;81.33;99847.08;107862;1257;66082;-83
2023/01/09 11:53:24;;;;;;;;;;;;;;;6.14;81.31;99844.89;108084;1257;72883;-81
2023/01/09 11:56:00;;;;;;;;;;;;;;;6.15;81.36;99837.62;107933;1257;60423;-81
2023/01/09 11:58:35;;;;;;;;;;;;;;;6.17;81.30;99838.02;107623;1257;60476;-84
2023/01/09 12:01:21;;;;;;;;;;;;;;;6.15;81.12;99839.36;107737;1257;73702;-82
2023/01/09 12:03:59;;;;;;;;;;;;;;;6.12;81.15;99842.56;107882;1259;65806;-82
2023/01/09 12:06:37;;;;;;;;;;;;;;;6.06;81.13;99841.87;107437;1257;72542;-81
2023/01/09 12:09:08;;;;;;;;;;;;;;;6.01;81.06;99844.52;107372;1256;59094;-81
2023/01/09 12:11:38;;;;;;;;;;;;;;;5.95;81.10;99837.02;107687;1257;59265;-81
2023/01/09 12:14:09;;;;;;;;;;;;;;;5.88;81.11;99828.08;107655;1256;73825;-88
2023/01/09 12:17:01;;;;;;;;;;;;;;;5.88;81.19;99836.27;107527;1257;66843;-90
2023/01/09 12:19:39;;;;;;;;;;;;;;;5.84;81.14;99833.04;107374;1258;73020;-88
2023/01/09 12:22:33;;;;;;;;;;;;;;;5.79;81.19;99831.14;107439;1257;60559;-88
2023/01/09 12:25:19;;;;;;;;;;;;;;;5.81;81.27;99829.64;107473;1257;60562;-88
2023/01/09 12:27:53;;;;;;;;;;;;;;;5.83;81.35;99830.91;107503;1257;74461;-88
2023/01/09 12:30:21;;;;;;;;;;;;;;;5.84;81.39;99825.02;107457;1257;65600;-89
2023/01/09 12:32:51;;;;;;;;;;;;;;;5.87;81.53;99830.86;107255;1257;72445;-88
2023/01/09 12:35:39;;;;;;;;;;;;;;;5.89;81.51;99825.15;107271;1258;60488;-88
2023/01/09 12:38:28;;;;;;;;;;;;;;;5.91;81.52;99827.31;107527;1260;60711;-88
2023/01/09 12:41:08;;;;;;;;;;;;;;;5.92;81.46;99824.88;107346;1257;72271;-90
2023/01/09 12:44:11;;;;;;;;;;;;;;;5.90;81.57;99825.90;107133;1256;67779;-91
2023/01/09 12:46:53;;;;;;;;;;;;;;;5.92;81.56;99826.13;106958;1264;73735;-83
2023/01/09 12:49:29;;;;;;;;;;;;;;;5.94;81.52;99826.52;107595;1255;60038;-82
2023/01/09 12:52:21;;;;;;;;;;;;;;;5.92;81.52;99822.81;107341;1257;59836;-86
2023/01/09 12:55:31;;;;;;;;;;;;;;;;;;;;;
2023/01/09 12:58:31;;;;;;;;;;;;;;;5.87;81.57;99815.52;107427;1257;67071;-90
2023/01/09 13:01:33;;;;;;;;;;;;;;;5.88;81.63;99811.89;107394;1258;71185;-93
2023/01/09 13:04:20;;;;;;;;;;;;;;;5.85;81.67;99806.26;107614;1257;58656;-84
2023/01/09 13:10:52;;;;;;;;;;;;;;;5.89;81.78;99800.24;106785;1260;73297;-90
2023/01/09 13:17:00;;;;;;;;;;;;;;;5.87;81.80;99790.98;106793;1260;71874;-91
2023/01/09 13:19:55;;;;;;;;;;;;;;;5.87;81.81;99790.98;106692;1263;60371;-90
2023/01/09 13:23:00;;;;;;;;;;;;;;;5.87;81.89;99786.44;106723;1263;60428;-92
2023/01/09 13:25:30;;;;;;;;;;;;;;;5.88;82.00;99787.70;106845;1264;73678;-83
2023/01/09 13:28:02;;;;;;;;;;;;;;;5.91;82.00;99787.80;107014;1260;65798;-83
2023/01/09 13:30:36;;;;;;;;;;;;;;;5.90;81.99;99783.39;106885;1260;71054;-84
2023/01/09 13:33:27;;;;;;;;;;;;;;;5.88;81.94;99779.85;106981;1261;60280;-84
2023/01/09 13:35:56;;;;;;;;;;;;;;;5.87;82.00;99781.92;106824;1261;60445;-83
2023/01/09 13:38:31;;;;;;;;;;;;;;;5.87;82.04;99784.88;106920;1267;74182;-83
2023/01/09 13:44:04;;;;;;;;;;;;;;;5.82;82.01;99787.71;106971;1261;72837;-83
2023/01/09 13:46:43;;;;;;;;;;;;;;;5.82;82.16;99787.88;106965;1260;59548;-84
2023/01/09 13:49:33;;;;;;;;;;;;;;;5.80;82.18;99788.17;107532;1254;60393;-84
2023/01/09 13:52:25;;;;;;;;;;;;;;;5.80;82.20;99789.73;107562;1254;72760;-84
2023/01/09 13:55:14;;;;;;;;;;;;;;;5.80;82.29;99788.33;107269;1263;67350;-84
2023/01/09 13:58:01;;;;;;;;;;;;;;;5.77;82.23;99789.64;107260;1264;72064;-84
2023/01/09 14:04:23;;;;;;;;;;;;;;;5.71;82.32;99798.17;107120;1262;61859;-84